Time;durP1;ratioP1;P1;durP2;ratioP2;P2;SDS_P1;SDS_P2;PMS_P1;PMS_P2;Temp;Humidity;BMP_temperature;BMP_pressure;BME280_temperature;BME280_humidity;BME280_pressure;Samples;Min_cycle;Max_cycle;Signal;HPM_P1;HPM_P2
2020/12/28 00:02:11;;;;;;;35.50;20.95;;;-0.90;82.10;;;;;;5036080;28;20026;-81
2020/12/28 00:04:38;;;;;;;31.50;19.20;;;-0.90;82.10;;;;;;5036026;28;20026;-81
2020/12/28 00:07:04;;;;;;;33.17;18.90;;;-0.90;81.80;;;;;;5034915;28;20479;-80
2020/12/28 00:09:30;;;;;;;38.10;19.92;;;-0.90;81.80;;;;;;5038116;28;20025;-81
2020/12/28 00:11:57;;;;;;;35.47;20.27;;;-0.80;81.20;;;;;;5056141;28;20035;-80
2020/12/28 00:14:26;;;;;;;33.97;19.10;;;-0.80;81.50;;;;;;5056067;28;20033;-81
2020/12/28 00:16:53;;;;;;;42.08;20.30;;;-0.80;81.30;;;;;;5054603;28;20029;-80
2020/12/28 00:19:19;;;;;;;32.17;18.20;;;-0.80;81.00;;;;;;5054394;28;20074;-80
2020/12/28 00:21:45;;;;;;;31.42;18.20;;;-0.80;81.10;;;;;;5055488;28;20100;-80
2020/12/28 00:24:13;;;;;;;31.92;18.88;;;-0.80;80.80;;;;;;5055642;28;20036;-80
2020/12/28 00:26:43;;;;;;;32.97;18.30;;;-0.80;80.70;;;;;;5055637;28;20686;-80
2020/12/28 00:29:10;;;;;;;35.05;19.35;;;-0.80;80.80;;;;;;5055586;28;20029;-80
2020/12/28 00:31:36;;;;;;;33.20;17.10;;;-0.80;80.40;;;;;;5054385;28;20398;-80
2020/12/28 00:34:03;;;;;;;31.38;17.23;;;-0.80;80.70;;;;;;5055420;28;20063;-80
2020/12/28 00:36:29;;;;;;;31.83;18.10;;;-0.80;80.70;;;;;;5055112;28;20375;-83
2020/12/28 00:38:55;;;;;;;30.65;17.65;;;-0.80;80.60;;;;;;5054357;28;20025;-80
2020/12/28 00:41:21;;;;;;;33.85;19.13;;;-0.80;80.40;;;;;;5055233;28;20121;-81
2020/12/28 00:43:46;;;;;;;37.83;21.00;;;-0.80;80.80;;;;;;5054182;28;20490;-81
2020/12/28 00:46:13;;;;;;;35.95;20.45;;;-0.90;80.40;;;;;;5055146;28;20033;-82
2020/12/28 00:48:39;;;;;;;33.30;20.00;;;-0.90;81.10;;;;;;5055220;28;20052;-82
2020/12/28 00:51:05;;;;;;;39.28;22.05;;;-0.90;81.00;;;;;;5053890;28;20025;-81
2020/12/28 00:53:31;;;;;;;39.72;22.10;;;-0.90;81.00;;;;;;5055147;28;20446;-81
2020/12/28 00:55:58;;;;;;;35.67;20.35;;;-0.90;81.00;;;;;;5053663;28;20352;-83
2020/12/28 00:58:24;;;;;;;37.78;19.63;;;-0.90;81.10;;;;;;5055012;28;20025;-81
2020/12/28 01:00:50;;;;;;;33.65;18.92;;;-0.90;81.00;;;;;;5053679;28;20470;-81
2020/12/28 01:03:16;;;;;;;36.25;19.27;;;-0.80;81.20;;;;;;5055094;28;20059;-82
2020/12/28 01:05:45;;;;;;;36.05;20.23;;;-0.80;81.10;;;;;;5053640;28;20549;-81
2020/12/28 01:08:11;;;;;;;31.50;17.95;;;-0.80;81.00;;;;;;5054701;28;20078;-82
2020/12/28 01:10:37;;;;;;;33.72;19.88;;;-0.80;81.00;;;;;;5054614;28;20021;-81
2020/12/28 01:13:05;;;;;;;37.13;19.27;;;-0.90;80.80;;;;;;5053572;28;20036;-80
2020/12/28 01:15:31;;;;;;;37.80;20.88;;;-0.90;81.00;;;;;;5054743;28;20029;-81
2020/12/28 01:17:57;;;;;;;36.88;20.52;;;-0.80;80.90;;;;;;5054690;28;20029;-81
2020/12/28 01:20:23;;;;;;;37.60;20.50;;;-0.80;81.10;;;;;;5053159;28;20106;-81
2020/12/28 01:22:48;;;;;;;36.47;19.63;;;-0.90;81.00;;;;;;5054677;28;20025;-81
2020/12/28 01:25:14;;;;;;;40.58;21.20;;;-0.80;81.10;;;;;;5052375;28;20474;-81
2020/12/28 01:27:40;;;;;;;36.85;20.85;;;-0.90;81.00;;;;;;5052826;28;20498;-81
2020/12/28 01:30:07;;;;;;;43.15;22.73;;;-0.90;81.00;;;;;;5054568;28;20025;-81
2020/12/28 01:32:33;;;;;;;43.75;21.70;;;-1.00;81.10;;;;;;5054711;28;20470;-81
2020/12/28 01:34:58;;;;;;;39.78;20.73;;;-1.00;81.40;;;;;;5053116;28;20115;-81
2020/12/28 01:37:24;;;;;;;40.40;22.13;;;-1.00;81.50;;;;;;5054204;28;20145;-81
2020/12/28 01:39:50;;;;;;;41.47;21.08;;;-1.00;81.20;;;;;;5053196;28;20036;-81
2020/12/28 01:42:16;;;;;;;38.85;19.73;;;-1.00;81.30;;;;;;5054273;28;20017;-82
2020/12/28 01:44:42;;;;;;;37.88;20.67;;;-1.00;81.30;;;;;;5054455;28;20058;-81
2020/12/28 01:47:08;;;;;;;42.83;21.30;;;-1.00;81.10;;;;;;5044154;28;20036;-81
2020/12/28 01:49:34;;;;;;;55.08;27.08;;;-1.00;81.40;;;;;;5034397;28;20072;-82
2020/12/28 01:52:01;;;;;;;62.70;29.85;;;-1.00;81.50;;;;;;5033014;28;20021;-81
2020/12/28 01:54:28;;;;;;;55.72;29.75;;;-1.00;81.50;;;;;;5033011;28;20026;-81
2020/12/28 01:56:56;;;;;;;56.45;28.63;;;-1.00;81.30;;;;;;5034109;28;20033;-81
2020/12/28 01:59:24;;;;;;;53.58;27.02;;;-0.90;81.20;;;;;;5032991;28;20032;-81
2020/12/28 02:01:52;;;;;;;53.75;26.05;;;-0.90;80.80;;;;;;5049419;28;20021;-80
2020/12/28 02:04:18;;;;;;;49.60;24.00;;;-0.90;80.90;;;;;;5053944;28;20482;-80
2020/12/28 02:06:45;;;;;;;45.55;23.02;;;-0.90;81.00;;;;;;5052811;28;20417;-81
2020/12/28 02:09:10;;;;;;;37.78;20.90;;;-0.90;80.80;;;;;;5052608;28;20028;-80
2020/12/28 02:11:36;;;;;;;41.47;21.45;;;-0.90;80.80;;;;;;5052651;28;20082;-81
2020/12/28 02:14:02;;;;;;;41.80;21.77;;;-0.90;80.60;;;;;;5053780;28;20521;-81
2020/12/28 02:16:28;;;;;;;38.60;21.10;;;-0.90;80.40;;;;;;5052342;28;20025;-81
2020/12/28 02:18:53;;;;;;;38.03;18.98;;;-0.90;80.50;;;;;;5052596;28;20109;-81
2020/12/28 02:21:19;;;;;;;37.20;18.92;;;-0.90;80.50;;;;;;5052606;28;20020;-81
2020/12/28 02:23:45;;;;;;;33.60;18.33;;;-0.80;80.50;;;;;;5052326;28;20021;-81
2020/12/28 02:26:11;;;;;;;29.13;16.58;;;-0.80;80.40;;;;;;5052569;28;20028;-81
2020/12/28 02:28:38;;;;;;;31.42;16.17;;;-0.90;80.40;;;;;;5052455;28;20028;-82
2020/12/28 02:31:04;;;;;;;35.95;18.23;;;-0.80;80.20;;;;;;5052344;28;20033;-81
2020/12/28 02:33:29;;;;;;;32.80;18.52;;;-0.90;80.10;;;;;;5052054;28;20387;-81
2020/12/28 02:35:55;;;;;;;31.10;17.08;;;-0.90;80.10;;;;;;5052052;28;20383;-80
2020/12/28 02:38:21;;;;;;;32.70;16.65;;;-0.80;80.30;;;;;;5053548;28;20032;-81
2020/12/28 02:40:47;;;;;;;32.33;18.23;;;-0.90;80.40;;;;;;5053358;28;20382;-80
2020/12/28 02:43:12;;;;;;;36.42;18.52;;;-0.90;80.20;;;;;;5052135;28;20036;-80
2020/12/28 02:45:38;;;;;;;32.92;17.80;;;-0.90;80.10;;;;;;5041210;28;20487;-80
2020/12/28 02:48:04;;;;;;;29.13;17.63;;;-0.80;80.20;;;;;;5032643;28;20049;-81
2020/12/28 02:50:30;;;;;;;31.30;17.02;;;-0.90;80.20;;;;;;5032021;28;20075;-80
2020/12/28 02:52:55;;;;;;;32.90;18.88;;;-0.80;81.00;;;;;;5033878;28;20029;-80
2020/12/28 02:55:21;;;;;;;32.22;17.95;;;-0.90;80.20;;;;;;5033638;28;20096;-79
2020/12/28 02:57:47;;;;;;;37.80;18.58;;;-0.80;80.10;;;;;;5032218;28;20875;-80
2020/12/28 03:00:13;;;;;;;35.05;18.10;;;-0.80;80.20;;;;;;5033430;28;20506;-81
2020/12/28 03:02:39;;;;;;;35.20;18.25;;;-0.80;80.00;;;;;;5032761;28;20367;-80
2020/12/28 03:05:05;;;;;;;35.08;19.33;;;-0.80;80.10;;;;;;5031982;28;20025;-81
2020/12/28 03:07:31;;;;;;;33.00;17.90;;;-0.70;80.00;;;;;;5031978;28;20605;-81
2020/12/28 03:09:56;;;;;;;29.38;17.70;;;-0.70;79.80;;;;;;5032206;28;20079;-81
2020/12/28 03:12:23;;;;;;;34.80;19.48;;;-0.70;80.00;;;;;;5033405;28;20025;-81
2020/12/28 03:14:49;;;;;;;39.60;19.27;;;-0.60;79.40;;;;;;5033568;28;20058;-81
2020/12/28 03:17:14;;;;;;;31.70;18.38;;;-0.60;79.50;;;;;;5032260;28;20026;-80
2020/12/28 03:19:40;;;;;;;36.38;20.00;;;-0.60;79.40;;;;;;5032077;28;20022;-82
2020/12/28 03:22:06;;;;;;;39.97;20.50;;;-0.60;79.40;;;;;;5031802;28;20036;-80
2020/12/28 03:24:32;;;;;;;36.53;20.25;;;-0.50;79.50;;;;;;5033218;28;20138;-81
2020/12/28 03:27:03;;;;;;;34.10;18.55;;;-0.50;79.70;;;;;;5033569;28;20029;-81
2020/12/28 03:29:30;;;;;;;36.78;20.35;;;-0.50;79.50;;;;;;5033652;28;20030;-81
2020/12/28 03:31:56;;;;;;;39.72;21.27;;;-0.50;78.90;;;;;;5034886;28;20108;-80
2020/12/28 03:34:22;;;;;;;38.10;21.17;;;-0.40;78.90;;;;;;5053334;28;20112;-81
2020/12/28 03:36:47;;;;;;;39.75;22.15;;;-0.40;79.00;;;;;;5052967;28;20048;-80
2020/12/28 03:39:13;;;;;;;39.15;21.88;;;-0.40;79.20;;;;;;5051861;28;20108;-80
2020/12/28 03:41:39;;;;;;;37.45;21.35;;;-0.40;78.70;;;;;;5051898;28;20025;-81
2020/12/28 03:44:05;;;;;;;42.10;20.42;;;-0.40;78.80;;;;;;5053676;28;20021;-81
2020/12/28 03:46:30;;;;;;;31.38;17.67;;;-0.40;78.80;;;;;;5055127;28;20421;-82
2020/12/28 03:48:56;;;;;;;34.40;19.33;;;-0.30;78.80;;;;;;5056895;28;20029;-81
2020/12/28 03:51:21;;;;;;;36.83;18.58;;;-0.40;78.60;;;;;;5056570;28;20154;-81
2020/12/28 03:53:47;;;;;;;30.52;17.95;;;-0.30;78.60;;;;;;5056832;28;20025;-81
2020/12/28 03:56:13;;;;;;;31.02;19.38;;;-0.30;78.80;;;;;;5056550;28;20367;-81
2020/12/28 03:58:39;;;;;;;32.90;19.30;;;-0.30;78.40;;;;;;5055131;28;20104;-81
2020/12/28 04:01:05;;;;;;;34.13;17.60;;;-0.30;78.40;;;;;;5054977;28;20466;-81
2020/12/28 04:03:31;;;;;;;32.65;18.80;;;-0.30;78.40;;;;;;5056254;28;20021;-84
2020/12/28 04:06:01;;;;;;;34.50;18.27;;;-0.30;78.10;;;;;;5055064;28;20164;-82
2020/12/28 04:08:27;;;;;;;31.50;17.42;;;-0.20;78.40;;;;;;5055048;28;20025;-81
2020/12/28 04:10:53;;;;;;;35.95;17.58;;;-0.30;78.40;;;;;;5056198;28;20021;-81
2020/12/28 04:13:18;;;;;;;31.88;18.67;;;-0.20;78.40;;;;;;5054805;28;20025;-82
2020/12/28 04:15:44;;;;;;;34.42;19.45;;;-0.20;78.20;;;;;;5055772;28;20025;-82
2020/12/28 04:18:10;;;;;;;32.97;19.42;;;-0.30;78.20;;;;;;5054800;28;20032;-81
2020/12/28 04:20:35;;;;;;;36.22;20.27;;;-0.20;78.50;;;;;;5054764;28;20017;-81
2020/12/28 04:23:01;;;;;;;29.33;17.05;;;-0.20;77.80;;;;;;5055846;28;20082;-81
2020/12/28 04:25:27;;;;;;;34.53;18.45;;;-0.20;77.90;;;;;;5056012;28;20021;-81
2020/12/28 04:27:52;;;;;;;33.92;17.13;;;-0.20;78.10;;;;;;5052526;28;20101;-82
2020/12/28 04:30:18;;;;;;;28.23;16.67;;;-0.20;77.90;;;;;;5036161;28;20029;-81
2020/12/28 04:32:44;;;;;;;34.20;17.50;;;-0.20;78.00;;;;;;5035788;28;20030;-80
2020/12/28 04:35:10;;;;;;;29.40;16.90;;;-0.20;77.50;;;;;;5034610;28;20136;-81
2020/12/28 04:37:35;;;;;;;30.70;16.42;;;-0.20;78.00;;;;;;5035477;28;20041;-81
2020/12/28 04:40:02;;;;;;;29.15;16.63;;;-0.20;77.70;;;;;;5034495;28;20021;-81
2020/12/28 04:42:29;;;;;;;29.38;15.32;;;-0.20;77.70;;;;;;5035481;28;20033;-81
2020/12/28 04:44:55;;;;;;;28.05;16.08;;;-0.10;78.10;;;;;;5035622;28;20057;-81
2020/12/28 04:47:21;;;;;;;25.77;14.65;;;-0.10;77.50;;;;;;5055586;28;20945;-82
2020/12/28 04:49:47;;;;;;;24.15;15.27;;;-0.20;77.40;;;;;;5055755;28;20048;-80
2020/12/28 04:52:14;;;;;;;24.65;14.43;;;-0.20;76.90;;;;;;5051636;28;20471;-82
2020/12/28 04:54:41;;;;;;;25.77;14.55;;;-0.10;77.40;;;;;;5034041;28;20026;-80
2020/12/28 04:57:08;;;;;;;25.15;14.43;;;-0.10;77.30;;;;;;5034170;28;20383;-80
2020/12/28 04:59:33;;;;;;;26.40;14.40;;;-0.10;77.30;;;;;;5034129;28;20446;-81
2020/12/28 05:01:59;;;;;;;23.40;15.13;;;-0.10;77.60;;;;;;5033906;28;20049;-81
2020/12/28 05:04:25;;;;;;;29.00;14.90;;;-0.10;77.70;;;;;;5035689;28;20018;-82
2020/12/28 05:07:09;;;;;;;29.70;16.80;;;-0.10;78.10;;;;;;5034162;28;20079;-81
2020/12/28 05:09:35;;;;;;;35.40;19.10;;;-0.10;79.40;;;;;;5038093;28;20025;-83
2020/12/28 05:12:04;;;;;;;39.88;21.73;;;-0.10;79.50;;;;;;5055108;28;20100;-82
2020/12/28 05:14:31;;;;;;;43.28;23.02;;;-0.10;80.00;;;;;;5052799;28;20083;-77
2020/12/28 05:17:08;;;;;;;42.53;23.70;;;-0.10;80.60;;;;;;5054748;28;20049;-77
2020/12/28 05:19:34;;;;;;;46.97;26.33;;;-0.20;80.70;;;;;;5054752;28;20021;-78
2020/12/28 05:22:01;;;;;;;44.55;24.90;;;-0.20;81.10;;;;;;5053523;28;20044;-80
2020/12/28 05:24:27;;;;;;;52.00;26.38;;;-0.20;81.40;;;;;;5054858;28;20348;-78
2020/12/28 05:26:55;;;;;;;50.95;25.70;;;-0.20;81.30;;;;;;5055359;28;20033;-78
2020/12/28 05:29:23;;;;;;;48.15;25.67;;;-0.30;81.30;;;;;;5054583;28;20037;-80
2020/12/28 05:31:51;;;;;;;47.33;26.33;;;-0.30;81.50;;;;;;5054759;28;20029;-76
2020/12/28 05:34:23;;;;;;;50.10;27.08;;;-0.30;81.70;;;;;;5054608;28;20032;-80
2020/12/28 05:36:50;;;;;;;49.22;25.05;;;-0.30;81.70;;;;;;5054201;28;20049;-80
2020/12/28 05:39:19;;;;;;;50.47;26.50;;;-0.30;81.50;;;;;;5054489;28;20488;-78
2020/12/28 05:41:53;;;;;;;46.13;25.38;;;-0.30;81.70;;;;;;5054734;28;20017;-79
2020/12/28 05:44:19;;;;;;;48.58;25.85;;;-0.30;81.60;;;;;;5054317;28;20094;-81
2020/12/28 05:46:59;;;;;;;52.10;26.33;;;-0.30;81.70;;;;;;5054469;28;20064;-78
2020/12/28 05:49:31;;;;;;;50.37;25.13;;;-0.30;82.00;;;;;;5054482;28;20044;-79
2020/12/28 05:51:58;;;;;;;45.58;24.10;;;-0.30;82.30;;;;;;5053130;28;20032;-80
2020/12/28 05:54:28;;;;;;;51.72;25.98;;;-0.30;82.50;;;;;;5054232;28;20017;-80
2020/12/28 05:56:55;;;;;;;46.17;25.27;;;-0.30;82.20;;;;;;5054312;28;20017;-81
2020/12/28 05:59:21;;;;;;;45.15;25.40;;;-0.40;82.40;;;;;;5054395;28;20021;-82
2020/12/28 06:01:48;;;;;;;44.50;23.67;;;-0.30;82.50;;;;;;5054186;28;20040;-80
2020/12/28 06:04:15;;;;;;;43.17;24.13;;;-0.30;82.50;;;;;;5054005;28;20017;-81
2020/12/28 06:06:42;;;;;;;50.85;24.45;;;-0.30;82.10;;;;;;5052323;28;20075;-83
2020/12/28 06:09:09;;;;;;;39.00;23.73;;;-0.30;81.70;;;;;;5053074;28;20106;-83
2020/12/28 06:11:35;;;;;;;45.20;24.75;;;-0.30;81.80;;;;;;5052646;28;20028;-79
2020/12/28 06:14:12;;;;;;;45.45;26.05;;;-0.30;81.90;;;;;;5052553;28;20036;-81
2020/12/28 06:16:37;;;;;;;46.13;24.65;;;-0.30;82.10;;;;;;5052512;28;20430;-80
2020/12/28 06:19:03;;;;;;;43.78;26.27;;;-0.30;82.20;;;;;;5045438;28;20022;-82
2020/12/28 06:21:36;;;;;;;48.05;26.30;;;-0.30;82.30;;;;;;5032717;28;20025;-81
2020/12/28 06:24:02;;;;;;;45.13;24.45;;;-0.30;82.30;;;;;;5033839;28;20021;-81
2020/12/28 06:26:28;;;;;;;44.92;23.85;;;-0.30;82.40;;;;;;5033708;28;20029;-80
2020/12/28 06:29:05;;;;;;;44.90;24.98;;;-0.30;82.40;;;;;;5033785;28;20421;-80
2020/12/28 06:31:31;;;;;;;42.80;24.10;;;-0.30;82.20;;;;;;5033872;28;20079;-80
2020/12/28 06:33:56;;;;;;;49.90;25.63;;;-0.20;82.40;;;;;;5032428;28;20057;-79
2020/12/28 06:36:22;;;;;;;38.20;22.67;;;-0.20;82.30;;;;;;5049946;28;20084;-81
2020/12/28 06:38:58;;;;;;;48.60;25.02;;;-0.20;82.20;;;;;;5053935;28;20526;-80
2020/12/28 06:41:29;;;;;;;41.45;23.80;;;-0.20;81.90;;;;;;5038185;28;20014;-78
2020/12/28 06:44:02;;;;;;;47.42;23.67;;;-0.10;81.80;;;;;;5033418;28;20022;-81
2020/12/28 06:46:29;;;;;;;44.40;23.70;;;-0.10;81.60;;;;;;5033441;28;20476;-78
2020/12/28 06:48:58;;;;;;;44.72;23.70;;;-0.10;81.40;;;;;;5033303;28;20017;-79
2020/12/28 06:51:25;;;;;;;40.50;22.73;;;-0.10;81.10;;;;;;5033550;28;20029;-82
2020/12/28 06:53:57;;;;;;;46.53;22.65;;;-0.10;81.30;;;;;;5033473;28;20018;-79
2020/12/28 06:56:26;;;;;;;41.03;22.02;;;-0.10;81.10;;;;;;5032176;28;20063;-79
2020/12/28 06:58:59;;;;;;;43.78;23.40;;;-0.10;81.10;;;;;;5033634;28;20355;-78
2020/12/28 07:01:26;;;;;;;51.28;23.73;;;-0.10;81.20;;;;;;5033291;28;20032;-81
2020/12/28 07:03:53;;;;;;;44.08;24.30;;;-0.10;80.90;;;;;;5032252;28;20036;-87
2020/12/28 07:06:19;;;;;;;39.83;22.63;;;-0.10;80.80;;;;;;5053076;28;20029;-81
2020/12/28 07:08:46;;;;;;;41.08;22.20;;;-0.10;81.00;;;;;;5053186;28;20033;-82
2020/12/28 07:11:18;;;;;;;40.42;22.38;;;-0.10;81.00;;;;;;5052461;28;20021;-91
2020/12/28 07:13:47;;;;;;;39.85;21.27;;;-0.10;80.70;;;;;;5052539;28;20111;-86
2020/12/28 07:16:18;;;;;;;36.00;21.38;;;-0.10;80.70;;;;;;5052164;28;20036;-88
2020/12/28 07:18:47;;;;;;;43.33;23.17;;;0.00;80.70;;;;;;5053347;28;20029;-91
2020/12/28 07:21:12;;;;;;;44.33;23.27;;;0.00;80.70;;;;;;5056464;28;20079;-84
2020/12/28 07:23:38;;;;;;;38.83;22.25;;;0.00;80.70;;;;;;5056757;28;20421;-84
2020/12/28 07:26:12;;;;;;;42.78;23.35;;;0.00;80.50;;;;;;5056829;28;20028;-92
2020/12/28 07:28:39;;;;;;;44.53;24.20;;;-0.10;80.70;;;;;;5057101;28;20025;-89
2020/12/28 07:31:06;;;;;;;43.90;23.73;;;-0.10;80.90;;;;;;5056982;28;20025;-86
2020/12/28 07:33:33;;;;;;;49.08;25.23;;;0.00;81.20;;;;;;5056623;28;20033;-92
2020/12/28 07:36:12;;;;;;;44.92;24.10;;;0.00;81.10;;;;;;5056297;28;20509;-89
2020/12/28 07:38:41;;;;;;;44.50;24.92;;;0.00;81.20;;;;;;5056479;28;20029;-92
2020/12/28 07:41:06;;;;;;;47.60;24.85;;;0.00;81.70;;;;;;5056268;28;20021;-89
2020/12/28 07:43:32;;;;;;;48.25;24.60;;;0.00;81.20;;;;;;5056267;28;20028;-92
2020/12/28 07:46:19;;;;;;;44.45;24.08;;;-0.10;81.30;;;;;;5056393;28;20032;-92
2020/12/28 07:48:46;;;;;;;41.67;23.00;;;0.00;81.60;;;;;;5056379;28;20021;-88
2020/12/28 07:51:16;;;;;;;43.03;23.08;;;0.00;81.00;;;;;;5056473;28;20035;-94
2020/12/28 07:53:48;;;;;;;43.70;23.65;;;0.00;81.00;;;;;;5056278;28;20124;-93
2020/12/28 07:56:57;;;;;;;48.28;23.75;;;0.00;81.00;;;;;;5056122;28;20057;-89
2020/12/28 07:59:29;;;;;;;43.40;22.95;;;0.00;81.00;;;;;;4999177;28;20086;-88
2020/12/28 08:01:59;;;;;;;46.72;24.40;;;0.00;81.20;;;;;;4999361;28;20025;-92
2020/12/28 08:04:25;;;;;;;42.72;23.90;;;0.00;81.10;;;;;;5028473;28;20388;-93
2020/12/28 08:06:56;;;;;;;42.53;22.90;;;0.00;81.20;;;;;;5055866;28;20036;-91
2020/12/28 08:09:22;;;;;;;;;;;0.00;81.30;;;;;;5055682;28;20029;-86
2020/12/28 08:12:02;;;;;;;48.17;23.98;;;0.00;81.10;;;;;;5055093;28;19920;-84
2020/12/28 08:14:28;;;;;;;45.70;23.08;;;0.00;81.00;;;;;;5056461;28;20025;-84
2020/12/28 08:16:54;;;;;;;50.50;24.92;;;0.00;81.10;;;;;;5054954;28;20387;-83
2020/12/28 08:19:27;;;;;;;51.90;26.17;;;0.00;81.20;;;;;;5056751;28;20021;-84
2020/12/28 08:21:53;;;;;;;47.33;24.85;;;0.00;81.30;;;;;;5055238;28;20021;-86
2020/12/28 08:24:20;;;;;;;50.20;24.58;;;0.00;81.30;;;;;;5055371;28;20090;-82
2020/12/28 08:26:47;;;;;;;46.67;25.77;;;0.00;81.30;;;;;;5055044;28;20470;-79
2020/12/28 08:29:15;;;;;;;46.03;24.75;;;0.00;81.30;;;;;;5055687;28;20108;-84
2020/12/28 08:31:42;;;;;;;47.38;24.83;;;0.00;81.30;;;;;;5056533;28;20040;-79
2020/12/28 08:34:13;;;;;;;50.70;24.70;;;0.00;81.00;;;;;;5055899;28;20025;-84
2020/12/28 08:36:41;;;;;;;44.55;23.70;;;0.10;81.00;;;;;;5055496;28;20056;-86
2020/12/28 08:39:25;;;;;;;46.25;24.48;;;0.00;80.70;;;;;;5053891;28;20021;-89
2020/12/28 08:42:02;;;;;;;43.65;23.25;;;0.10;80.70;;;;;;5052366;28;20071;-84
2020/12/28 08:44:33;;;;;;;43.83;24.02;;;0.10;80.60;;;;;;5051678;28;20029;-86
2020/12/28 08:47:20;;;;;;;45.78;23.88;;;0.10;80.70;;;;;;5053708;28;20021;-85
2020/12/28 08:49:48;;;;;;;45.13;24.38;;;0.20;80.60;;;;;;5047973;28;20035;-89
2020/12/28 08:52:15;;;;;;;45.80;23.65;;;0.20;80.40;;;;;;5053451;28;20021;-84
2020/12/28 08:54:42;;;;;;;44.97;25.05;;;0.30;80.20;;;;;;5053217;28;20144;-87
2020/12/28 08:57:22;;;;;;;43.65;25.15;;;0.40;79.80;;;;;;5053434;28;20028;-84
2020/12/28 08:59:48;;;;;;;41.65;23.27;;;0.40;80.10;;;;;;5053175;28;20112;-83
2020/12/28 09:02:16;;;;;;;55.92;25.25;;;0.50;79.70;;;;;;5054435;28;20029;-90
2020/12/28 09:04:42;;;;;;;46.55;23.88;;;0.40;79.60;;;;;;5051629;28;20029;-85
2020/12/28 09:07:07;;;;;;;43.90;23.80;;;0.40;79.30;;;;;;5052953;28;20474;-84
2020/12/28 09:09:33;;;;;;;41.47;22.27;;;0.40;79.40;;;;;;5053002;28;20119;-86
2020/12/28 09:11:59;;;;;;;47.95;24.60;;;0.40;79.70;;;;;;5055083;28;20029;-87
2020/12/28 09:14:24;;;;;;;43.60;24.23;;;0.50;79.30;;;;;;5055440;28;20155;-82
2020/12/28 09:16:50;;;;;;;46.45;25.90;;;0.50;79.70;;;;;;5055307;28;20035;-81
2020/12/28 09:19:16;;;;;;;41.85;22.15;;;0.50;79.40;;;;;;5055026;28;20017;-85
2020/12/28 09:21:44;;;;;;;48.80;26.50;;;0.50;79.50;;;;;;5053450;28;20036;-83
2020/12/28 09:24:10;;;;;;;46.15;24.15;;;0.50;79.70;;;;;;5054891;28;20078;-86
2020/12/28 09:26:36;;;;;;;49.67;25.67;;;0.50;79.00;;;;;;5054808;28;20025;-81
2020/12/28 09:29:02;;;;;;;43.88;23.98;;;0.50;79.40;;;;;;5054994;28;20033;-83
2020/12/28 09:31:27;;;;;;;45.22;23.92;;;0.50;79.20;;;;;;5053364;28;20031;-81
2020/12/28 09:33:53;;;;;;;50.88;25.80;;;0.50;79.20;;;;;;5054838;28;20031;-76
2020/12/28 09:36:22;;;;;;;49.20;25.27;;;0.40;79.30;;;;;;5054371;28;20041;-83
2020/12/28 09:38:48;;;;;;;44.00;23.02;;;0.50;79.20;;;;;;5054696;28;20025;-83
2020/12/28 09:41:14;;;;;;;46.97;23.52;;;0.50;79.10;;;;;;5054040;28;20028;-82
2020/12/28 09:43:41;;;;;;;46.17;23.10;;;0.50;79.50;;;;;;5054742;28;20021;-81
2020/12/28 09:46:07;;;;;;;47.50;25.30;;;0.50;79.20;;;;;;5054444;28;20103;-81
2020/12/28 09:48:33;;;;;;;46.10;23.85;;;0.50;79.10;;;;;;5054338;28;20021;-80
2020/12/28 09:50:59;;;;;;;46.45;23.75;;;0.60;79.40;;;;;;5053126;28;20025;-80
2020/12/28 09:53:24;;;;;;;44.80;24.05;;;0.50;79.60;;;;;;5054268;28;20467;-78
2020/12/28 09:55:51;;;;;;;48.03;24.75;;;0.60;79.50;;;;;;5054249;28;20155;-80
2020/12/28 09:58:17;;;;;;;40.70;23.48;;;0.50;79.50;;;;;;5054030;28;20086;-76
2020/12/28 10:00:42;;;;;;;44.40;23.05;;;0.50;79.30;;;;;;5054250;28;20044;-78
2020/12/28 10:03:08;;;;;;;44.45;22.67;;;0.50;79.80;;;;;;5054156;28;20463;-79
2020/12/28 10:05:36;;;;;;;42.08;23.05;;;0.50;79.80;;;;;;5053939;28;20374;-82
2020/12/28 10:08:02;;;;;;;43.63;22.65;;;0.40;80.00;;;;;;5052652;28;20410;-78
2020/12/28 10:10:27;;;;;;;40.47;22.30;;;0.40;80.20;;;;;;5052640;28;20028;-80
2020/12/28 10:12:53;;;;;;;43.20;23.10;;;0.40;80.40;;;;;;5053929;28;20083;-81
2020/12/28 10:15:19;;;;;;;42.40;21.20;;;0.40;80.60;;;;;;5052589;28;20378;-79
2020/12/28 10:18:28;;;;;;;42.35;21.65;;;0.40;80.60;;;;;;5053772;28;20422;-82
2020/12/28 10:20:53;;;;;;;36.97;21.48;;;0.50;80.60;;;;;;5056221;28;20029;-78
2020/12/28 10:23:19;;;;;;;39.83;22.35;;;0.50;80.60;;;;;;5053896;28;20032;-81
2020/12/28 10:25:45;;;;;;;43.45;20.85;;;0.50;80.60;;;;;;5053792;28;20100;-78
2020/12/28 10:28:11;;;;;;;36.45;21.35;;;0.50;80.60;;;;;;5052515;28;20025;-79
2020/12/28 10:30:36;;;;;;;41.20;22.38;;;0.50;80.80;;;;;;5054249;28;20052;-79
2020/12/28 10:33:02;;;;;;;44.65;21.90;;;0.50;81.00;;;;;;5052431;28;20021;-78
2020/12/28 10:35:28;;;;;;;42.67;22.10;;;0.50;81.00;;;;;;5052107;28;20049;-79
2020/12/28 10:37:55;;;;;;;41.35;21.30;;;0.50;80.90;;;;;;5053576;28;20029;-79
2020/12/28 10:40:21;;;;;;;37.42;22.85;;;0.50;81.20;;;;;;5053947;28;20118;-79
2020/12/28 10:42:47;;;;;;;40.60;21.75;;;0.40;81.30;;;;;;5053638;28;20052;-79
2020/12/28 10:45:12;;;;;;;40.08;20.20;;;0.40;81.50;;;;;;5053937;28;20110;-80
2020/12/28 10:47:38;;;;;;;42.20;20.65;;;0.40;81.40;;;;;;5052218;28;20489;-80
2020/12/28 10:50:04;;;;;;;40.08;20.65;;;0.50;81.60;;;;;;5053446;28;20033;-79
2020/12/28 10:52:29;;;;;;;40.67;20.98;;;0.40;81.70;;;;;;5052825;28;20036;-81
2020/12/28 10:54:55;;;;;;;36.47;20.08;;;0.40;81.70;;;;;;5057715;28;20028;-83
2020/12/28 10:57:21;;;;;;;36.20;20.58;;;0.40;81.90;;;;;;5057575;28;20413;-80
2020/12/28 10:59:46;;;;;;;34.13;19.13;;;0.40;81.90;;;;;;5056274;28;20025;-78
2020/12/28 11:02:12;;;;;;;35.75;19.13;;;0.50;81.90;;;;;;5057560;28;20025;-77
2020/12/28 11:04:38;;;;;;;39.35;20.63;;;0.40;81.80;;;;;;5056216;28;20490;-80
2020/12/28 11:07:03;;;;;;;34.78;19.13;;;0.40;81.80;;;;;;5056259;28;20032;-80
2020/12/28 11:09:29;;;;;;;36.65;20.40;;;0.40;81.80;;;;;;5057639;28;20120;-78
2020/12/28 11:11:55;;;;;;;32.95;19.08;;;0.50;82.10;;;;;;5055999;28;20408;-72
2020/12/28 11:14:21;;;;;;;33.33;17.98;;;0.50;81.90;;;;;;5055865;28;20021;-80
2020/12/28 11:16:47;;;;;;;37.42;19.75;;;0.50;81.80;;;;;;5057246;28;20025;-80
2020/12/28 11:19:13;;;;;;;42.08;19.42;;;0.50;81.80;;;;;;5055866;28;20025;-81
2020/12/28 11:21:38;;;;;;;37.50;19.67;;;0.50;81.70;;;;;;5057204;28;20421;-80
2020/12/28 11:24:04;;;;;;;36.78;20.38;;;0.50;81.60;;;;;;5057161;28;20028;-77
2020/12/28 11:26:34;;;;;;;43.30;20.27;;;0.50;81.70;;;;;;5057126;28;20104;-78
2020/12/28 11:29:09;;;;;;;42.53;20.37;;;0.50;81.40;;;;;;5055779;28;20494;-79
2020/12/28 11:31:34;;;;;;;37.80;19.98;;;0.40;81.70;;;;;;5057013;28;20262;-82
2020/12/28 11:34:00;;;;;;;35.17;20.40;;;0.40;81.90;;;;;;5055432;28;20044;-77
2020/12/28 11:36:26;;;;;;;38.30;18.92;;;0.40;81.90;;;;;;5056642;28;20132;-79
2020/12/28 11:38:51;;;;;;;37.50;19.88;;;0.50;82.20;;;;;;5055560;28;20025;-79
2020/12/28 11:41:18;;;;;;;41.55;19.95;;;0.50;82.10;;;;;;5056820;28;20831;-80
2020/12/28 11:43:44;;;;;;;40.60;18.85;;;0.60;82.00;;;;;;5056785;28;20021;-78
2020/12/28 11:46:11;;;;;;;36.80;19.02;;;0.60;81.90;;;;;;5056878;28;20021;-80
2020/12/28 11:48:37;;;;;;;36.10;18.30;;;0.60;82.00;;;;;;5055524;28;20075;-80
2020/12/28 11:51:05;;;;;;;42.20;19.70;;;0.60;82.00;;;;;;5055045;28;20475;-79
2020/12/28 11:53:34;;;;;;;35.30;17.85;;;0.60;82.30;;;;;;5056808;28;20036;-80
2020/12/28 11:56:12;;;;;;;36.65;19.45;;;0.60;82.60;;;;;;5055529;28;20021;-80
2020/12/28 11:58:41;;;;;;;37.20;18.92;;;0.60;82.80;;;;;;5055341;28;20021;-75
2020/12/28 12:01:15;;;;;;;38.50;17.95;;;0.50;82.50;;;;;;5056319;28;20524;-78
2020/12/28 12:03:44;;;;;;;35.17;18.35;;;0.60;82.70;;;;;;5054865;28;20731;-79
2020/12/28 12:06:14;;;;;;;33.03;17.65;;;0.60;82.50;;;;;;5055765;28;20017;-80
2020/12/28 12:09:09;;;;;;;36.53;18.05;;;0.60;82.20;;;;;;5056315;28;20014;-79
2020/12/28 12:11:25;;;;;;;36.72;17.52;;;0.60;82.30;;;;;;5056049;28;20432;-77
2020/12/28 12:13:51;;;;;;;32.22;17.38;;;0.60;82.20;;;;;;5056585;28;20060;-76
2020/12/28 12:16:24;;;;;;;41.83;18.73;;;0.60;82.30;;;;;;5054683;28;20021;-77
2020/12/28 12:18:50;;;;;;;31.88;16.77;;;0.60;82.10;;;;;;5054838;28;20116;-76
2020/12/28 12:21:16;;;;;;;31.35;16.88;;;0.60;82.00;;;;;;5056040;28;20048;-78
2020/12/28 12:23:42;;;;;;;34.58;16.40;;;0.60;81.90;;;;;;5056075;28;20436;-79
2020/12/28 12:26:08;;;;;;;39.17;16.95;;;0.60;81.90;;;;;;5056008;28;20017;-77
2020/12/28 12:28:34;;;;;;;29.70;16.52;;;0.60;81.80;;;;;;5055892;28;20025;-76
2020/12/28 12:31:00;;;;;;;32.58;16.60;;;0.60;81.90;;;;;;5056220;28;20151;-78
2020/12/28 12:33:25;;;;;;;29.65;15.98;;;0.60;81.70;;;;;;5055799;28;20025;-77